Time;durP1;ratioP1;P1;durP2;ratioP2;P2;SDS_P1;SDS_P2;PMS_P1;PMS_P2;Temp;Humidity;BMP_temperature;BMP_pressure;BME280_temperature;BME280_humidity;BME280_pressure;Samples;Min_cycle;Max_cycle;Signal;HPM_P1;HPM_P2
2022/06/13 00:02:13;;;;;;;2.10;1.90;;;15.20;99.90;;;;;;5058408;28;21757;-69
2022/06/13 00:04:41;;;;;;;2.70;2.50;;;15.30;99.90;;;;;;5060587;28;20458;-69
2022/06/13 00:07:08;;;;;;;4.93;1.70;;;15.00;99.90;;;;;;5064951;28;20448;-70
2022/06/13 00:09:35;;;;;;;5.73;3.57;;;14.80;99.90;;;;;;5063352;28;20450;-69
2022/06/13 00:12:02;;;;;;;3.83;2.07;;;14.60;99.90;;;;;;5064231;28;20450;-69
2022/06/13 00:14:28;;;;;;;3.33;2.13;;;14.40;99.90;;;;;;5065557;28;20472;-70
2022/06/13 00:16:55;;;;;;;2.13;1.93;;;14.70;99.90;;;;;;5065915;28;20447;-70
2022/06/13 00:19:22;;;;;;;2.87;1.67;;;14.70;99.90;;;;;;5063973;28;20439;-70
2022/06/13 00:21:50;;;;;;;2.90;1.83;;;14.80;99.90;;;;;;5062443;28;20541;-70
2022/06/13 00:24:17;;;;;;;2.50;2.00;;;14.80;99.90;;;;;;5063168;28;21036;-70
2022/06/13 00:26:44;;;;;;;2.90;1.83;;;14.80;99.90;;;;;;5061035;28;20435;-70
2022/06/13 00:29:11;;;;;;;4.33;2.43;;;14.90;99.90;;;;;;5058551;28;20435;-70
2022/06/13 00:31:38;;;;;;;3.33;1.97;;;14.90;99.90;;;;;;5063752;28;20467;-70
2022/06/13 00:34:04;;;;;;;4.80;2.10;;;14.70;99.90;;;;;;5059765;28;20584;-71
2022/06/13 00:36:31;;;;;;;3.13;1.73;;;14.80;99.90;;;;;;5060779;28;20423;-70
2022/06/13 00:38:59;;;;;;;5.10;1.80;;;14.80;99.90;;;;;;5060137;28;20434;-70
2022/06/13 00:41:28;;;;;;;4.00;2.40;;;14.90;99.90;;;;;;5063080;28;20443;-70
2022/06/13 00:43:56;;;;;;;5.80;1.80;;;14.90;99.90;;;;;;5058968;28;20555;-69
2022/06/13 00:46:27;;;;;;;5.57;2.30;;;14.80;99.90;;;;;;5061995;28;20463;-69
2022/06/13 00:48:57;;;;;;;2.77;1.70;;;14.60;99.90;;;;;;5062363;28;20418;-71
2022/06/13 00:51:25;;;;;;;2.90;2.23;;;14.50;99.90;;;;;;5058124;28;20987;-69
2022/06/13 00:53:53;;;;;;;3.03;1.90;;;14.50;99.90;;;;;;5062458;28;20464;-69
2022/06/13 00:56:24;;;;;;;3.33;1.87;;;14.50;99.90;;;;;;5062280;28;20857;-69
2022/06/13 00:58:54;;;;;;;5.50;1.93;;;14.50;99.90;;;;;;5060076;28;20420;-71
2022/06/13 01:01:22;;;;;;;3.50;2.40;;;14.50;99.90;;;;;;5060148;28;20758;-69
2022/06/13 01:03:49;;;;;;;2.30;1.57;;;14.60;99.90;;;;;;5060378;28;20577;-69
2022/06/13 01:06:18;;;;;;;6.93;2.43;;;14.60;99.90;;;;;;5059328;28;20414;-70
2022/06/13 01:08:45;;;;;;;5.53;2.10;;;14.50;99.90;;;;;;5061166;28;20411;-70
2022/06/13 01:11:17;;;;;;;2.60;1.77;;;14.50;99.90;;;;;;5062737;28;20810;-70
2022/06/13 01:14:18;;;;;;;4.80;2.07;;;14.30;99.90;;;;;;5060657;28;20507;-70
2022/06/13 01:16:57;;;;;;;4.80;2.33;;;14.20;99.90;;;;;;5058795;28;20465;-70
2022/06/13 01:20:05;;;;;;;2.27;2.07;;;14.10;99.90;;;;;;5061649;28;20418;-70
2022/06/13 01:23:02;;;;;;;2.43;2.00;;;13.90;99.90;;;;;;5058909;28;20450;-69
2022/06/13 01:25:40;;;;;;;4.23;2.27;;;13.90;99.90;;;;;;5037317;28;20421;-70
2022/06/13 01:28:38;;;;;;;6.87;1.50;;;14.00;99.90;;;;;;5058822;28;20517;-70
2022/06/13 01:31:14;;;;;;;2.40;1.80;;;13.90;99.90;;;;;;5054302;28;20439;-69
2022/06/13 01:33:53;;;;;;;2.70;1.90;;;14.00;99.90;;;;;;5055655;28;20581;-70
2022/06/13 01:36:36;;;;;;;3.77;2.10;;;14.00;99.90;;;;;;5062545;28;20451;-70
2022/06/13 01:39:18;;;;;;;3.97;3.13;;;14.10;99.90;;;;;;5058502;28;20422;-69
2022/06/13 01:42:01;;;;;;;5.63;2.60;;;14.10;99.90;;;;;;5059860;28;20434;-70
2022/06/13 01:44:40;;;;;;;6.20;2.93;;;14.10;99.90;;;;;;5057651;28;20406;-69
2022/06/13 01:47:12;;;;;;;3.93;1.90;;;14.10;99.90;;;;;;5061283;28;20418;-70
2022/06/13 01:49:51;;;;;;;3.30;2.23;;;14.00;99.90;;;;;;5062286;28;20441;-70
2022/06/13 01:52:25;;;;;;;2.67;1.63;;;14.00;99.90;;;;;;5057746;28;20434;-70
2022/06/13 01:54:57;;;;;;;3.40;2.00;;;14.00;99.90;;;;;;5062128;28;20502;-69
2022/06/13 01:57:32;;;;;;;2.40;2.17;;;14.00;99.90;;;;;;5060756;28;20452;-69
2022/06/13 02:00:05;;;;;;;3.43;2.10;;;13.90;99.90;;;;;;5060367;28;20459;-74
2022/06/13 02:02:40;;;;;;;5.70;2.30;;;13.80;99.90;;;;;;5062792;28;21056;-70
2022/06/13 02:05:12;;;;;;;3.40;3.10;;;13.80;99.90;;;;;;5060159;28;20960;-69
2022/06/13 02:07:42;;;;;;;2.90;2.23;;;13.70;99.90;;;;;;5055631;28;20466;-69
2022/06/13 02:10:14;;;;;;;6.53;2.70;;;13.70;99.90;;;;;;5062226;28;20449;-69
2022/06/13 02:12:43;;;;;;;5.00;2.63;;;13.70;99.90;;;;;;5060642;28;20462;-69
2022/06/13 02:15:16;;;;;;;3.07;2.30;;;13.80;99.90;;;;;;5060213;28;20460;-69
2022/06/13 02:17:49;;;;;;;4.30;1.90;;;14.00;99.90;;;;;;5049595;28;20479;-70
2022/06/13 02:20:20;;;;;;;3.40;1.90;;;14.10;99.90;;;;;;5061346;28;20971;-70
2022/06/13 02:22:49;;;;;;;2.37;2.10;;;14.20;99.90;;;;;;5065439;28;20461;-70
2022/06/13 02:25:20;;;;;;;8.70;3.00;;;14.30;99.90;;;;;;5064402;28;20462;-70
2022/06/13 02:27:50;;;;;;;3.20;2.13;;;14.30;99.90;;;;;;5063454;28;20402;-70
2022/06/13 02:30:19;;;;;;;8.60;3.23;;;14.40;99.90;;;;;;5062401;28;20425;-69
2022/06/13 02:32:49;;;;;;;4.60;2.80;;;14.30;99.90;;;;;;5063933;28;20438;-70
2022/06/13 02:35:21;;;;;;;3.43;2.10;;;14.30;99.90;;;;;;5063378;28;20482;-69
2022/06/13 02:37:52;;;;;;;4.43;2.30;;;14.30;99.90;;;;;;5060817;28;20457;-69
2022/06/13 02:40:23;;;;;;;4.97;2.10;;;14.30;99.90;;;;;;5064391;28;20443;-69
2022/06/13 02:42:56;;;;;;;2.00;1.53;;;14.10;99.90;;;;;;5066276;28;20462;-69
2022/06/13 02:45:26;;;;;;;2.70;2.20;;;14.00;99.90;;;;;;5063762;28;21104;-70
2022/06/13 02:48:02;;;;;;;3.93;2.03;;;13.90;99.90;;;;;;5064855;28;20472;-70
2022/06/13 02:50:42;;;;;;;4.80;2.27;;;13.70;99.90;;;;;;5064954;28;20518;-69
2022/06/13 02:53:15;;;;;;;6.03;2.40;;;13.50;99.90;;;;;;5059541;28;20453;-69
2022/06/13 02:55:45;;;;;;;2.33;1.90;;;13.60;99.90;;;;;;5063465;28;20464;-69
2022/06/13 02:58:23;;;;;;;13.57;2.90;;;13.60;99.90;;;;;;5062355;28;20433;-69
2022/06/13 03:00:59;;;;;;;5.73;3.07;;;13.60;99.90;;;;;;5057856;28;20443;-69
2022/06/13 03:03:38;;;;;;;4.10;3.00;;;13.60;99.90;;;;;;5066807;28;20465;-70
2022/06/13 03:06:08;;;;;;;6.50;3.00;;;13.60;99.90;;;;;;5058152;28;20926;-69
2022/06/13 03:08:59;;;;;;;5.73;2.90;;;13.60;99.90;;;;;;5064537;28;20433;-69
2022/06/13 03:11:45;;;;;;;7.93;3.73;;;13.90;99.90;;;;;;5059359;28;20838;-70
2022/06/13 03:14:39;;;;;;;4.77;2.03;;;13.90;99.90;;;;;;5057645;28;20486;-69
2022/06/13 03:17:15;;;;;;;4.40;2.40;;;14.00;99.90;;;;;;5065397;28;20459;-70
2022/06/13 03:19:47;;;;;;;3.60;2.43;;;14.10;99.90;;;;;;5064813;28;20516;-69
2022/06/13 03:22:18;;;;;;;4.07;2.40;;;14.20;99.90;;;;;;5059888;28;20455;-69
2022/06/13 03:24:52;;;;;;;4.67;2.30;;;14.40;99.90;;;;;;5062177;28;20411;-69
2022/06/13 03:27:26;;;;;;;3.40;2.70;;;14.30;99.90;;;;;;5064814;28;20443;-72
2022/06/13 03:29:58;;;;;;;2.80;1.83;;;14.40;99.90;;;;;;5058095;28;20940;-70
2022/06/13 03:32:30;;;;;;;3.87;2.30;;;14.40;99.90;;;;;;5066135;28;20475;-69
2022/06/13 03:35:02;;;;;;;5.63;2.23;;;14.40;99.90;;;;;;5059431;28;20453;-69
2022/06/13 03:37:35;;;;;;;3.43;2.47;;;14.50;99.90;;;;;;5064707;28;20431;-70
2022/06/13 03:40:07;;;;;;;4.13;2.50;;;14.40;99.90;;;;;;5055615;28;20438;-70
2022/06/13 03:42:40;;;;;;;6.47;3.43;;;14.30;99.90;;;;;;5064194;28;20445;-69
2022/06/13 03:45:16;;;;;;;3.77;2.30;;;14.30;99.90;;;;;;5061641;28;20474;-70
2022/06/13 03:47:47;;;;;;;4.63;2.37;;;14.30;99.90;;;;;;5062253;28;20974;-70
2022/06/13 03:50:19;;;;;;;8.70;3.37;;;14.40;99.90;;;;;;5061030;28;20825;-70
2022/06/13 03:52:51;;;;;;;4.83;3.20;;;14.60;99.90;;;;;;5064227;28;20805;-70
2022/06/13 03:55:21;;;;;;;3.37;2.13;;;14.60;99.90;;;;;;5064580;28;20454;-70
2022/06/13 03:57:56;;;;;;;4.10;3.70;;;14.70;99.90;;;;;;5061992;28;20438;-69
2022/06/13 04:00:28;;;;;;;3.90;3.03;;;14.80;99.90;;;;;;5059499;28;20488;-69
2022/06/13 04:02:56;;;;;;;4.53;2.40;;;15.00;99.90;;;;;;5062314;28;20485;-69
2022/06/13 04:05:31;;;;;;;6.70;3.00;;;15.10;99.90;;;;;;5058597;28;21083;-69
2022/06/13 04:08:01;;;;;;;8.77;2.90;;;15.20;99.90;;;;;;5063890;28;20461;-70
2022/06/13 04:10:28;;;;;;;3.23;2.80;;;15.20;99.90;;;;;;5061713;28;20463;-70
2022/06/13 04:13:14;;;;;;;3.60;2.70;;;15.30;99.90;;;;;;5059485;28;20483;-71
2022/06/13 04:15:56;;;;;;;5.10;2.53;;;15.20;99.90;;;;;;5058322;28;20462;-71
2022/06/13 04:18:47;;;;;;;5.63;3.87;;;15.20;99.90;;;;;;5059056;28;20953;-71
2022/06/13 04:21:27;;;;;;;12.90;3.10;;;15.00;99.90;;;;;;5059666;28;20437;-70
2022/06/13 04:24:03;;;;;;;5.40;3.30;;;15.00;99.90;;;;;;5062364;28;20524;-70
2022/06/13 04:26:38;;;;;;;6.80;3.70;;;15.10;99.90;;;;;;5057500;28;20573;-70
2022/06/13 04:29:10;;;;;;;7.87;2.80;;;15.00;99.90;;;;;;5059573;28;20459;-70
2022/06/13 04:31:38;;;;;;;5.40;2.90;;;15.00;99.90;;;;;;5055638;28;20501;-71
2022/06/13 04:34:10;;;;;;;6.50;3.93;;;15.00;99.90;;;;;;5061114;28;20465;-70
2022/06/13 04:36:39;;;;;;;5.30;2.87;;;15.00;99.90;;;;;;5110557;22;20500;-70
2022/06/13 04:39:08;;;;;;;3.40;2.47;;;15.00;99.90;;;;;;5060400;28;20459;-70
2022/06/13 04:41:40;;;;;;;5.00;3.60;;;15.20;99.90;;;;;;5055353;28;20434;-72
2022/06/13 04:44:08;;;;;;;4.70;3.23;;;15.20;99.90;;;;;;5064019;28;20439;-71
2022/06/13 04:46:37;;;;;;;8.17;2.90;;;15.30;99.90;;;;;;5062643;28;20962;-70
2022/06/13 04:49:07;;;;;;;5.40;3.03;;;15.40;99.90;;;;;;5065348;28;20440;-71
2022/06/13 04:51:42;;;;;;;4.40;3.53;;;15.50;99.90;;;;;;5064250;28;20853;-71
2022/06/13 04:54:16;;;;;;;6.03;3.40;;;15.40;99.90;;;;;;5065161;28;20457;-71
2022/06/13 04:56:44;;;;;;;3.80;3.33;;;15.40;99.90;;;;;;5066225;28;20467;-71
2022/06/13 04:59:14;;;;;;;7.30;3.93;;;15.40;99.90;;;;;;5065301;28;20420;-71
2022/06/13 05:01:45;;;;;;;8.27;3.27;;;15.60;99.90;;;;;;5062208;28;20824;-71
2022/06/13 05:04:16;;;;;;;4.00;3.60;;;15.80;99.90;;;;;;5064013;28;20543;-71
2022/06/13 05:06:50;;;;;;;5.77;5.23;;;15.70;99.90;;;;;;5065696;28;20797;-71
2022/06/13 05:09:22;;;;;;;6.63;3.80;;;15.70;99.90;;;;;;5063251;28;20466;-71
2022/06/13 05:11:56;;;;;;;6.67;3.30;;;15.80;99.90;;;;;;5058955;28;20456;-70
2022/06/13 05:14:26;;;;;;;4.27;3.07;;;16.00;99.90;;;;;;5064253;28;20449;-71
2022/06/13 05:17:06;;;;;;;7.10;3.63;;;15.90;99.90;;;;;;5062459;28;20481;-71
2022/06/13 05:19:44;;;;;;;8.67;3.50;;;16.00;99.90;;;;;;5064462;28;20436;-71
2022/06/13 05:22:38;;;;;;;9.27;4.43;;;16.00;99.90;;;;;;5062079;28;21329;-71
2022/06/13 05:25:28;;;;;;;6.53;2.90;;;15.80;99.90;;;;;;5063261;28;20461;-70
2022/06/13 05:27:55;;;;;;;6.13;3.17;;;15.80;99.90;;;;;;5063228;28;20450;-71
2022/06/13 05:30:23;;;;;;;5.10;3.30;;;15.80;99.90;;;;;;5062917;28;20451;-71
2022/06/13 05:32:50;;;;;;;7.60;4.00;;;15.90;99.90;;;;;;5063484;28;20443;-70
2022/06/13 05:35:20;;;;;;;7.27;3.97;;;15.80;99.90;;;;;;5065060;28;20490;-70
2022/06/13 05:37:49;;;;;;;7.60;4.43;;;15.70;99.90;;;;;;5064937;28;20443;-70
2022/06/13 05:40:19;;;;;;;6.80;3.50;;;15.70;99.90;;;;;;5062826;28;20451;-70
2022/06/13 05:42:46;;;;;;;6.50;4.03;;;15.60;99.90;;;;;;5064864;28;20446;-70
2022/06/13 05:45:13;;;;;;;13.43;4.07;;;15.50;99.90;;;;;;5063911;28;20438;-70
2022/06/13 05:47:41;;;;;;;8.53;4.20;;;15.60;99.90;;;;;;5064757;28;20466;-70
2022/06/13 05:50:14;;;;;;;7.60;4.17;;;15.30;99.90;;;;;;5064692;28;20446;-70
2022/06/13 05:52:41;;;;;;;11.37;4.77;;;15.30;99.90;;;;;;5063271;28;20444;-70
2022/06/13 05:55:10;;;;;;;5.50;2.80;;;15.40;99.90;;;;;;5064868;28;20490;-71
2022/06/13 05:57:37;;;;;;;7.73;4.00;;;15.30;99.90;;;;;;5063326;28;20475;-71
2022/06/13 06:00:07;;;;;;;13.87;3.90;;;15.50;99.90;;;;;;5063265;28;20439;-71
2022/06/13 06:02:33;;;;;;;15.30;3.37;;;15.60;99.90;;;;;;5064693;28;20918;-70
2022/06/13 06:05:00;;;;;;;9.07;4.40;;;15.70;99.90;;;;;;5065481;28;20932;-71
2022/06/13 06:07:28;;;;;;;11.50;5.63;;;15.90;99.90;;;;;;5053382;28;20541;-71
2022/06/13 06:09:55;;;;;;;7.60;4.20;;;15.80;99.90;;;;;;5064991;28;20429;-71
2022/06/13 06:12:23;;;;;;;5.80;3.83;;;15.90;99.90;;;;;;5062256;28;20482;-71
2022/06/13 06:14:50;;;;;;;7.60;4.00;;;16.00;99.90;;;;;;5064583;28;20797;-71
2022/06/13 06:17:17;;;;;;;6.40;4.33;;;16.40;99.90;;;;;;5063670;28;20442;-71
2022/06/13 06:19:44;;;;;;;6.43;3.13;;;16.50;99.90;;;;;;5065386;28;20924;-71
2022/06/13 06:22:10;;;;;;;4.53;2.90;;;16.80;99.90;;;;;;5064069;28;20410;-71
2022/06/13 06:24:38;;;;;;;6.30;4.10;;;17.10;99.90;;;;;;5062886;28;20454;-70
2022/06/13 06:27:05;;;;;;;6.47;3.57;;;17.80;99.90;;;;;;5063956;28;20470;-71
2022/06/13 06:29:33;;;;;;;5.70;4.03;;;18.50;99.90;;;;;;5063033;28;20450;-71
2022/06/13 06:32:00;;;;;;;6.77;3.50;;;18.90;99.90;;;;;;5064016;28;20475;-71
2022/06/13 06:34:28;;;;;;;5.67;3.57;;;19.20;99.90;;;;;;5076180;28;20463;-70
2022/06/13 06:36:54;;;;;;;6.30;3.40;;;19.60;99.90;;;;;;5076507;28;20479;-70
2022/06/13 06:39:21;;;;;;;8.30;4.20;;;20.00;99.90;;;;;;5076391;28;20478;-71
2022/06/13 06:41:48;;;;;;;8.53;4.17;;;20.00;99.90;;;;;;5075941;28;20439;-71
2022/06/13 06:44:16;;;;;;;6.70;4.43;;;20.10;99.90;;;;;;5077469;28;20452;-71
2022/06/13 06:46:44;;;;;;;8.80;5.70;;;20.50;99.90;;;;;;5078797;28;20542;-71
2022/06/13 06:49:11;;;;;;;14.60;5.33;;;20.10;99.90;;;;;;5070056;28;20865;-71
2022/06/13 06:51:38;;;;;;;9.10;4.87;;;20.20;99.90;;;;;;5065270;28;20483;-70
2022/06/13 07:02:20;;;;;;;5.10;3.10;;;21.00;99.90;;;;;;5061520;28;20465;-71
2022/06/13 07:04:47;;;;;;;7.23;5.10;;;21.20;99.90;;;;;;5065742;28;20444;-71
2022/06/13 07:07:14;;;;;;;4.83;3.87;;;20.80;99.90;;;;;;5067816;28;20448;-71
2022/06/13 07:09:41;;;;;;;13.30;4.87;;;20.00;99.90;;;;;;5067078;28;20447;-71
2022/06/13 07:12:08;;;;;;;8.93;5.73;;;19.40;99.90;;;;;;5067004;28;20414;-71
2022/06/13 07:14:36;;;;;;;7.70;5.17;;;19.30;99.90;;;;;;5063975;28;20507;-71
2022/06/13 07:17:06;;;;;;;4.30;3.77;;;19.20;99.90;;;;;;5065736;28;21060;-71
2022/06/13 07:19:35;;;;;;;8.10;4.90;;;19.20;99.90;;;;;;5066893;28;20453;-70
2022/06/13 07:22:04;;;;;;;10.60;5.80;;;18.80;99.90;;;;;;5065163;28;20925;-71
2022/06/13 07:24:32;;;;;;;9.03;5.83;;;18.60;99.90;;;;;;5061152;28;20463;-71
2022/06/13 07:26:59;;;;;;;9.17;5.63;;;18.40;99.90;;;;;;5064904;28;20475;-71
2022/06/13 07:29:26;;;;;;;6.70;4.73;;;18.60;99.90;;;;;;5064362;28;20451;-71
2022/06/13 07:31:57;;;;;;;9.70;5.00;;;18.40;99.90;;;;;;5064951;28;20470;-70
2022/06/13 07:34:26;;;;;;;10.53;4.73;;;18.40;99.90;;;;;;5066095;28;20524;-71
2022/06/13 07:36:57;;;;;;;11.00;4.70;;;18.40;99.90;;;;;;5067357;28;20464;-70
2022/06/13 07:39:24;;;;;;;9.83;5.70;;;18.20;99.90;;;;;;5064908;28;20451;-71
2022/06/13 07:41:51;;;;;;;17.57;5.90;;;18.00;99.90;;;;;;5064456;28;20481;-71
2022/06/13 07:44:22;;;;;;;8.00;5.40;;;18.00;99.90;;;;;;5065354;28;20451;-71
2022/06/13 07:46:50;;;;;;;8.27;5.67;;;18.10;99.90;;;;;;5067164;28;20467;-70
2022/06/13 07:49:18;;;;;;;9.00;7.07;;;18.00;99.90;;;;;;5066915;28;20444;-71
2022/06/13 07:51:45;;;;;;;11.90;6.00;;;18.30;99.90;;;;;;5066179;28;20458;-71
2022/06/13 07:54:13;;;;;;;19.20;6.00;;;18.30;99.90;;;;;;5065757;28;20424;-71
2022/06/13 07:56:41;;;;;;;14.60;8.07;;;18.50;99.90;;;;;;5062629;28;20478;-70
2022/06/13 07:59:08;;;;;;;9.17;5.80;;;18.50;99.90;;;;;;5065193;28;20466;-71
2022/06/13 08:01:37;;;;;;;11.87;7.37;;;18.80;99.90;;;;;;5065367;28;20652;-71
2022/06/13 08:04:04;;;;;;;13.60;7.03;;;19.50;99.90;;;;;;5067159;28;20414;-71
2022/06/13 08:06:31;;;;;;;10.57;7.93;;;19.80;99.90;;;;;;5065039;28;20528;-71
2022/06/13 08:08:58;;;;;;;13.97;8.50;;;20.10;99.90;;;;;;5066858;28;20955;-71
2022/06/13 08:11:31;;;;;;;13.43;7.50;;;20.30;99.90;;;;;;5066435;28;20439;-72
2022/06/13 08:13:58;;;;;;;9.90;5.80;;;20.60;99.90;;;;;;5065206;28;20447;-71
2022/06/13 08:16:25;;;;;;;13.27;7.03;;;21.30;99.90;;;;;;5064477;28;20496;-71
2022/06/13 08:18:52;;;;;;;13.73;6.90;;;21.80;99.90;;;;;;5067132;28;20521;-71
2022/06/13 08:21:19;;;;;;;12.13;7.03;;;21.80;99.90;;;;;;5067419;28;20439;-71
2022/06/13 08:23:46;;;;;;;12.57;6.57;;;21.20;99.90;;;;;;5066402;28;20554;-71
2022/06/13 08:26:13;;;;;;;11.23;5.87;;;21.20;99.90;;;;;;5066557;28;20617;-71
2022/06/13 08:28:41;;;;;;;9.50;6.40;;;20.90;99.90;;;;;;5066813;28;20479;-71
2022/06/13 08:31:11;;;;;;;9.00;5.73;;;20.20;99.90;;;;;;5062481;28;20455;-71
2022/06/13 08:33:38;;;;;;;10.87;6.73;;;19.60;99.90;;;;;;5065824;28;20538;-71
2022/06/13 08:36:06;;;;;;;11.90;6.47;;;19.40;99.90;;;;;;5065663;28;20487;-72
2022/06/13 08:38:33;;;;;;;9.20;6.30;;;19.60;99.90;;;;;;5063822;28;20576;-71
2022/06/13 08:41:07;;;;;;;7.57;5.80;;;19.40;99.90;;;;;;5065700;28;20833;-71
2022/06/13 08:43:55;;;;;;;14.27;4.70;;;20.20;99.90;;;;;;5065221;28;20439;-72
2022/06/13 08:46:27;;;;;;;9.80;4.30;;;21.60;99.90;;;;;;5031946;28;20451;-71
2022/06/13 08:49:02;;;;;;;12.67;5.10;;;22.30;99.90;;;;;;5065181;28;20808;-71
2022/06/13 08:51:41;;;;;;;5.60;3.70;;;23.50;99.90;;;;;;5064987;28;20531;-71
2022/06/13 08:54:12;;;;;;;11.23;3.80;;;24.00;99.90;;;;;;5066126;28;20439;-72
2022/06/13 08:56:39;;;;;;;8.37;3.33;;;24.40;99.90;;;;;;5063510;28;20483;-70
2022/06/13 08:59:24;;;;;;;6.10;3.53;;;23.90;99.90;;;;;;5062961;28;20449;-71
2022/06/13 09:01:56;;;;;;;5.30;3.50;;;23.70;99.90;;;;;;5065403;28;20443;-72
2022/06/13 09:04:28;;;;;;;5.53;3.07;;;24.30;99.90;;;;;;5064238;28;20457;-74
2022/06/13 09:07:01;;;;;;;8.33;3.37;;;24.50;99.90;;;;;;5065223;28;20462;-71
2022/06/13 09:09:35;;;;;;;8.60;4.37;;;24.30;99.90;;;;;;5064497;28;20435;-71
2022/06/13 09:12:07;;;;;;;6.27;4.00;;;23.60;99.90;;;;;;5065088;28;20457;-71
2022/06/13 09:14:36;;;;;;;3.70;1.93;;;22.30;99.90;;;;;;5063403;28;20459;-71
2022/06/13 09:17:13;;;;;;;11.43;4.70;;;21.90;99.90;;;;;;5065021;28;20505;-71
2022/06/13 09:19:47;;;;;;;3.20;2.20;;;22.70;99.90;;;;;;5065933;28;20490;-71
2022/06/13 09:22:22;;;;;;;6.20;3.03;;;23.90;99.90;;;;;;5062461;28;20455;-71
2022/06/13 09:24:59;;;;;;;7.00;2.73;;;24.00;99.90;;;;;;5065799;28;20955;-71
2022/06/13 09:27:30;;;;;;;6.50;2.80;;;24.50;99.90;;;;;;5065040;28;20526;-71
2022/06/13 09:30:02;;;;;;;4.53;2.20;;;23.90;99.90;;;;;;5063625;28;20458;-70
2022/06/13 09:32:34;;;;;;;2.50;2.07;;;22.70;99.90;;;;;;5064520;28;20450;-71
2022/06/13 09:35:09;;;;;;;5.30;2.30;;;22.20;99.90;;;;;;5064289;28;20450;-71
2022/06/13 09:37:42;;;;;;;4.70;2.30;;;22.00;99.90;;;;;;5064329;28;20836;-70
2022/06/13 09:40:11;;;;;;;5.93;2.50;;;21.70;99.90;;;;;;5063305;28;20466;-69
2022/06/13 09:42:57;;;;;;;4.37;3.03;;;22.10;99.90;;;;;;5063845;28;20518;-69
2022/06/13 09:45:50;;;;;;;5.80;2.73;;;22.20;99.90;;;;;;5065444;28;20462;-69
2022/06/13 09:48:30;;;;;;;3.63;2.93;;;21.50;99.90;;;;;;5055694;28;20487;-70
2022/06/13 09:51:05;;;;;;;9.20;2.97;;;21.40;99.90;;;;;;5064305;28;20447;-70
2022/06/13 09:53:38;;;;;;;4.53;2.50;;;22.80;99.90;;;;;;5061426;28;20458;-71
2022/06/13 09:56:10;;;;;;;4.50;3.10;;;24.40;99.90;;;;;;5063873;28;20482;-70
2022/06/13 09:58:54;;;;;;;7.70;2.87;;;25.10;99.90;;;;;;5063375;28;20447;-70
2022/06/13 10:01:28;;;;;;;15.53;4.77;;;25.80;99.90;;;;;;5062938;28;20985;-71
2022/06/13 10:04:11;;;;;;;7.50;3.00;;;26.00;99.70;;;;;;5065879;28;20451;-71
2022/06/13 10:06:43;;;;;;;8.00;2.63;;;26.40;96.40;;;;;;5064654;28;20470;-71
2022/06/13 10:09:23;;;;;;;3.97;2.43;;;26.00;98.50;;;;;;5065128;28;20953;-70
2022/06/13 10:11:58;;;;;;;4.77;2.33;;;25.80;95.60;;;;;;5064356;28;20446;-70
2022/06/13 10:14:47;;;;;;;2.70;1.73;;;25.00;96.00;;;;;;5060612;28;20455;-71
2022/06/13 10:17:28;;;;;;;3.83;2.93;;;26.10;93.00;;;;;;5051711;28;20488;-70
2022/06/13 10:20:05;;;;;;;4.73;1.83;;;25.80;91.10;;;;;;5060864;28;20520;-70
2022/06/13 10:22:37;;;;;;;7.47;2.53;;;24.70;90.60;;;;;;5063032;28;20459;-70
2022/06/13 10:25:18;;;;;;;3.90;1.70;;;23.50;93.10;;;;;;5064074;28;20819;-71
2022/06/13 10:27:55;;;;;;;3.73;1.70;;;22.70;95.00;;;;;;5064676;28;20457;-71
2022/06/13 10:30:39;;;;;;;3.87;2.10;;;22.20;95.70;;;;;;5060456;28;20454;-70
2022/06/13 10:33:21;;;;;;;3.70;1.93;;;22.30;96.30;;;;;;5065241;28;20477;-70
2022/06/13 10:35:55;;;;;;;5.20;1.80;;;22.60;96.30;;;;;;5078976;22;20478;-70
2022/06/13 10:38:36;;;;;;;7.20;1.93;;;22.70;96.30;;;;;;5071335;28;20996;-70
2022/06/13 10:41:03;;;;;;;6.17;1.90;;;22.20;95.90;;;;;;5082986;28;20434;-70
2022/06/13 10:43:31;;;;;;;3.10;1.60;;;21.70;95.70;;;;;;5085498;28;21098;-71
2022/06/13 10:45:58;;;;;;;6.70;1.80;;;21.60;97.30;;;;;;5087598;28;21002;-71
2022/06/13 10:48:29;;;;;;;4.27;2.03;;;21.70;97.40;;;;;;5085205;28;20442;-71
2022/06/13 10:50:59;;;;;;;4.80;1.87;;;22.20;97.80;;;;;;5086284;28;20521;-71
2022/06/13 10:53:31;;;;;;;4.00;2.00;;;22.80;96.40;;;;;;5085452;28;20446;-71
2022/06/13 10:56:00;;;;;;;6.10;2.70;;;22.90;96.70;;;;;;5086557;28;20488;-71
2022/06/13 10:58:34;;;;;;;4.30;2.20;;;22.50;97.70;;;;;;5083456;28;20461;-71
2022/06/13 11:01:08;;;;;;;4.90;3.40;;;22.10;97.60;;;;;;5082831;28;20441;-71
2022/06/13 11:03:36;;;;;;;4.50;2.30;;;21.90;97.50;;;;;;5083216;28;20461;-70
2022/06/13 11:06:07;;;;;;;4.17;1.80;;;22.10;97.50;;;;;;5081583;28;20470;-70
2022/06/13 11:08:35;;;;;;;4.10;2.40;;;22.70;98.10;;;;;;5079030;28;20507;-70
2022/06/13 11:11:04;;;;;;;4.73;1.90;;;24.10;96.60;;;;;;5087624;28;20712;-71
2022/06/13 11:13:34;;;;;;;5.57;2.10;;;24.40;94.40;;;;;;5080140;28;20534;-70
2022/06/13 11:24:49;;;;;;;2.90;1.47;;;22.00;97.30;;;;;;5086091;28;20865;-71
2022/06/13 11:27:40;;;;;;;2.50;1.47;;;21.40;98.70;;;;;;5086533;28;20461;-71
2022/06/13 11:30:38;;;;;;;2.10;1.70;;;21.00;98.70;;;;;;5079505;28;20563;-70
2022/06/13 11:33:08;;;;;;;5.43;1.73;;;21.00;98.80;;;;;;5047833;28;20969;-71
2022/06/13 11:35:38;;;;;;;3.73;1.47;;;21.20;99.20;;;;;;5085978;28;20507;-69
2022/06/13 11:38:17;;;;;;;3.20;1.63;;;21.30;99.90;;;;;;5084900;28;21074;-70
2022/06/13 11:40:46;;;;;;;3.50;1.53;;;21.30;98.80;;;;;;5082206;28;20473;-70
2022/06/13 11:43:22;;;;;;;4.47;1.87;;;21.20;99.90;;;;;;5081052;28;20458;-69
2022/06/13 11:46:01;;;;;;;5.20;1.90;;;22.30;98.90;;;;;;5086052;28;20544;-70
2022/06/13 11:48:29;;;;;;;4.77;1.70;;;23.10;98.40;;;;;;5083668;28;20434;-70
2022/06/13 11:50:57;;;;;;;1.90;1.80;;;22.80;97.60;;;;;;5085186;28;20504;-70
2022/06/13 11:53:38;;;;;;;1.40;1.13;;;22.90;97.10;;;;;;5084880;28;20434;-69
2022/06/13 11:56:11;;;;;;;3.20;1.50;;;22.10;95.20;;;;;;5084163;28;20462;-69
2022/06/13 11:58:42;;;;;;;3.33;1.80;;;22.50;96.00;;;;;;5083447;28;20529;-70
2022/06/13 12:01:20;;;;;;;3.67;1.90;;;23.90;94.40;;;;;;5080620;28;20481;-70
2022/06/13 12:04:02;;;;;;;2.57;1.20;;;24.90;93.10;;;;;;5085046;28;20457;-71
2022/06/13 12:06:34;;;;;;;1.73;1.53;;;25.00;92.80;;;;;;5086159;28;20783;-71
2022/06/13 12:09:13;;;;;;;2.60;2.10;;;25.50;89.80;;;;;;5085970;28;20946;-71
2022/06/13 12:11:47;;;;;;;3.20;1.17;;;24.50;89.70;;;;;;5084924;28;20438;-70
2022/06/13 12:14:14;;;;;;;2.67;1.33;;;23.40;92.40;;;;;;5083814;28;20443;-70
2022/06/13 12:16:50;;;;;;;3.57;1.70;;;23.30;93.40;;;;;;5083894;28;20522;-71
2022/06/13 12:19:30;;;;;;;2.20;1.60;;;23.20;94.10;;;;;;5086959;28;20813;-70
2022/06/13 12:22:01;;;;;;;4.30;1.53;;;23.20;96.00;;;;;;5085901;28;20529;-70
2022/06/13 12:24:37;;;;;;;7.33;1.40;;;23.40;95.00;;;;;;5084594;28;20434;-70
2022/06/13 12:27:15;;;;;;;1.80;1.40;;;23.20;92.30;;;;;;5086029;28;20468;-70
2022/06/13 12:30:03;;;;;;;1.83;1.20;;;24.30;92.00;;;;;;5080227;28;20458;-71
2022/06/13 12:32:35;;;;;;;1.80;1.33;;;25.80;87.40;;;;;;5082517;28;20577;-70
2022/06/13 12:35:30;;;;;;;3.13;1.70;;;26.00;84.70;;;;;;5084484;28;20529;-71
2022/06/13 12:38:06;;;;;;;1.30;1.10;;;25.50;88.10;;;;;;5085732;28;20478;-71
2022/06/13 12:40:46;;;;;;;2.00;1.27;;;23.70;87.70;;;;;;5081355;28;20449;-71
2022/06/13 12:43:39;;;;;;;1.67;1.10;;;22.80;90.30;;;;;;5085921;28;20430;-70
2022/06/13 12:46:25;;;;;;;2.03;1.70;;;22.90;89.70;;;;;;5087345;28;20470;-71
2022/06/13 12:49:07;;;;;;;1.93;1.10;;;22.60;89.10;;;;;;5087466;28;20541;-72
2022/06/13 12:51:42;;;;;;;3.23;1.60;;;22.30;92.10;;;;;;5088315;28;20757;-69
2022/06/13 12:54:43;;;;;;;2.17;1.60;;;23.00;92.50;;;;;;5086699;28;20462;-70
2022/06/13 12:57:28;;;;;;;1.30;1.10;;;24.60;91.70;;;;;;5085238;28;20521;-70
2022/06/13 13:00:09;;;;;;;4.03;1.40;;;25.60;80.90;;;;;;5087243;28;20435;-70
2022/06/13 13:02:57;;;;;;;1.50;1.40;;;27.00;79.80;;;;;;5084039;28;20513;-70
2022/06/13 13:05:33;;;;;;;2.53;1.10;;;27.70;78.40;;;;;;5085431;28;20456;-70
2022/06/13 13:08:22;;;;;;;1.70;1.40;;;27.60;74.60;;;;;;5085538;28;20441;-70
2022/06/13 13:11:23;;;;;;;1.77;1.30;;;27.10;70.90;;;;;;5084871;28;21200;-71
2022/06/13 13:13:57;;;;;;;3.00;1.60;;;25.20;74.90;;;;;;5081052;28;20453;-71
2022/06/13 13:16:34;;;;;;;5.40;1.17;;;23.20;81.60;;;;;;5085186;28;20454;-70
2022/06/13 13:19:26;;;;;;;3.33;1.40;;;22.40;83.00;;;;;;5082730;28;20493;-70
2022/06/13 13:21:57;;;;;;;1.70;1.03;;;21.80;85.00;;;;;;5081570;28;20549;-71
2022/06/13 13:24:37;;;;;;;1.70;1.20;;;21.40;89.00;;;;;;5085147;28;21094;-70
2022/06/13 13:27:07;;;;;;;2.73;1.73;;;21.70;89.00;;;;;;5081595;28;20472;-71
2022/06/13 13:29:44;;;;;;;2.33;1.30;;;22.60;87.20;;;;;;5079571;28;20493;-71
2022/06/13 13:32:20;;;;;;;1.90;1.20;;;23.00;84.40;;;;;;5085785;28;20499;-71
2022/06/13 13:34:57;;;;;;;3.60;1.20;;;22.60;85.10;;;;;;5086159;28;20442;-72